Airfield :
LOGIN :

Register | Disclaimer

   EN    FR    IT 

 










Legend :    VFR   Marginal VFR   IFR   Intensive IFR   Very Intensive IFR
Visi :
Ceiling :
>= 8 km
>= 3000ft
5 to 8 km
1000 to 3000 ft
1500m to 5 km
500 to 1000 ft
800 to 1500m
200 to 500 ft
< 800m
< 200 ft
Symbols :   Thunderstorms  Fog  Heavy snow  Heavy precipitations  Wind > 20 kt
SIGMETs :     Misc.  Thunderstorms  Icing  Turbulence  Mountain Waves  Volcanic Ashes






- Airport Elevation : 1411 ft
- IATA code : ZHI


LSZG - Grenchen

CURRENT METAR :
  • 121420Z 24010KT 9999 FEW045 05/M01 Q1004 NOSIG

EXPIRED METARs :
  • 121350Z 24011KT 9999 SCT035 BKN045 04/01 Q1004 NOSIG
  • 121320Z 24012KT 9999 FEW020 SCT035 BKN055 04/01 Q1005 NOSIG
  • 121250Z 24013KT 9999 FEW024 SCT028 BKN059 04/00 Q1006 NOSIG
  • 121220Z 23013KT 9999 FEW024 SCT028 BKN059 04/01 Q1006 NOSIG
  • 121150Z 25010KT 9999 SCT018 SCT030 BKN056 04/01 Q1007 NOSIG

TAF TAF LSZG
Valid from the 12 at 12:00 until the 12 at 21:00 UTC


121125Z 1212/1221 24008KT 9999 FEW030 SCT050
TEMPO 1214/1219 CAVOK
ATIS : +41 32 396 96 33



MET'MAP, your aeronautical weather chart ! - Copyright ORBIFLY December 2007 - Disclaimer

ORBIFLY MET'MAP TEAM :

Programming & Development : Alexandra Zaïnal
Concept & original design : Baudouin d'Aumeries
Assistance for programming : Marc-Olivier Méhu
Technical & hardware support : Manuel Goepfert

Contact : metmap@orbifly.com




SOURCES & CREDITS :

   NOAA